sensor_id;sensor_type;location;lat;lon;timestamp;pressure;altitude;pressure_sealevel;temperature;humidity
13434;BME280;6789;47.678;9.158;2023-08-07T00:00:20;96858.13;;;13.58;89.02
13434;BME280;6789;47.678;9.158;2023-08-07T00:05:12;96862.28;;;13.54;90.61
13434;BME280;6789;47.678;9.158;2023-08-07T00:10:05;96855.75;;;13.57;90.51
13434;BME280;6789;47.678;9.158;2023-08-07T00:14:56;96854.56;;;13.48;91.15
13434;BME280;6789;47.678;9.158;2023-08-07T00:19:48;96848.78;;;13.51;91.24
13434;BME280;6789;47.678;9.158;2023-08-07T00:24:40;96856.94;;;13.50;91.04
13434;BME280;6789;47.678;9.158;2023-08-07T00:29:32;96840.00;;;13.46;90.89
13434;BME280;6789;47.678;9.158;2023-08-07T00:34:24;96832.50;;;13.38;91.60
13434;BME280;6789;47.678;9.158;2023-08-07T00:39:16;96828.53;;;13.35;91.93
13434;BME280;6789;47.678;9.158;2023-08-07T00:44:08;96830.19;;;13.41;91.44
13434;BME280;6789;47.678;9.158;2023-08-07T00:49:00;96824.13;;;13.41;90.91
13434;BME280;6789;47.678;9.158;2023-08-07T00:53:52;96825.97;;;13.40;91.13
13434;BME280;6789;47.678;9.158;2023-08-07T00:58:44;96818.91;;;13.46;91.20
13434;BME280;6789;47.678;9.158;2023-08-07T01:03:36;96821.00;;;13.44;90.55
13434;BME280;6789;47.678;9.158;2023-08-07T01:08:28;96824.50;;;13.49;90.53
13434;BME280;6789;47.678;9.158;2023-08-07T01:13:35;96817.34;;;13.45;90.73
13434;BME280;6789;47.678;9.158;2023-08-07T01:18:30;96813.75;;;13.51;89.78
13434;BME280;6789;47.678;9.158;2023-08-07T01:23:22;96816.06;;;13.47;90.02
13434;BME280;6789;47.678;9.158;2023-08-07T01:28:33;96821.34;;;13.47;90.02
13434;BME280;6789;47.678;9.158;2023-08-07T01:33:39;96820.03;;;13.33;90.68
13434;BME280;6789;47.678;9.158;2023-08-07T01:38:35;96824.09;;;13.24;90.87
13434;BME280;6789;47.678;9.158;2023-08-07T01:43:28;96817.41;;;13.17;91.16
13434;BME280;6789;47.678;9.158;2023-08-07T01:48:20;96832.78;;;13.08;91.12
13434;BME280;6789;47.678;9.158;2023-08-07T01:53:14;96835.88;;;13.05;91.60
13434;BME280;6789;47.678;9.158;2023-08-07T01:58:06;96834.09;;;12.94;92.36
13434;BME280;6789;47.678;9.158;2023-08-07T02:02:57;96833.44;;;12.87;92.66
13434;BME280;6789;47.678;9.158;2023-08-07T02:07:49;96836.06;;;12.87;92.93
13434;BME280;6789;47.678;9.158;2023-08-07T02:12:42;96823.94;;;12.86;92.59
13434;BME280;6789;47.678;9.158;2023-08-07T02:17:34;96837.94;;;12.87;92.63
13434;BME280;6789;47.678;9.158;2023-08-07T02:22:29;96845.66;;;12.93;92.70
13434;BME280;6789;47.678;9.158;2023-08-07T02:27:20;96840.09;;;12.79;93.38
13434;BME280;6789;47.678;9.158;2023-08-07T02:32:12;96838.66;;;12.71;93.81
13434;BME280;6789;47.678;9.158;2023-08-07T02:37:04;96845.13;;;12.80;93.66
13434;BME280;6789;47.678;9.158;2023-08-07T02:41:56;96854.97;;;12.73;94.84
13434;BME280;6789;47.678;9.158;2023-08-07T02:46:48;96847.31;;;12.83;94.52
13434;BME280;6789;47.678;9.158;2023-08-07T02:51:40;96851.50;;;12.95;93.60
13434;BME280;6789;47.678;9.158;2023-08-07T02:56:32;96858.97;;;12.76;95.04
13434;BME280;6789;47.678;9.158;2023-08-07T03:01:24;96862.47;;;12.65;95.75
13434;BME280;6789;47.678;9.158;2023-08-07T03:06:16;96864.31;;;12.53;97.04
13434;BME280;6789;47.678;9.158;2023-08-07T03:11:08;96875.00;;;12.46;97.81
13434;BME280;6789;47.678;9.158;2023-08-07T03:16:01;96876.59;;;12.36;99.19
13434;BME280;6789;47.678;9.158;2023-08-07T03:20:57;96885.63;;;12.28;99.73
13434;BME280;6789;47.678;9.158;2023-08-07T03:25:50;96896.50;;;12.20;100.00
13434;BME280;6789;47.678;9.158;2023-08-07T03:30:45;96890.09;;;12.16;100.00
13434;BME280;6789;47.678;9.158;2023-08-07T03:35:37;96896.28;;;12.10;100.00
13434;BME280;6789;47.678;9.158;2023-08-07T03:40:28;96883.03;;;12.06;100.00
13434;BME280;6789;47.678;9.158;2023-08-07T03:45:20;96892.84;;;11.99;100.00
13434;BME280;6789;47.678;9.158;2023-08-07T03:50:12;96882.22;;;12.05;100.00
13434;BME280;6789;47.678;9.158;2023-08-07T03:55:04;96906.00;;;11.99;100.00
13434;BME280;6789;47.678;9.158;2023-08-07T04:00:21;96907.25;;;11.96;100.00
13434;BME280;6789;47.678;9.158;2023-08-07T04:05:16;96915.13;;;11.96;100.00
13434;BME280;6789;47.678;9.158;2023-08-07T04:10:08;96917.88;;;12.01;100.00
13434;BME280;6789;47.678;9.158;2023-08-07T04:15:00;96923.13;;;12.01;100.00
13434;BME280;6789;47.678;9.158;2023-08-07T04:19:53;96924.28;;;12.05;100.00
13434;BME280;6789;47.678;9.158;2023-08-07T04:24:44;96923.94;;;12.13;100.00
13434;BME280;6789;47.678;9.158;2023-08-07T04:29:36;96928.38;;;12.35;100.00
13434;BME280;6789;47.678;9.158;2023-08-07T04:34:28;96932.50;;;12.43;100.00
13434;BME280;6789;47.678;9.158;2023-08-07T04:39:21;96935.00;;;12.49;100.00
13434;BME280;6789;47.678;9.158;2023-08-07T04:44:12;96930.75;;;12.60;100.00
13434;BME280;6789;47.678;9.158;2023-08-07T04:49:04;96934.28;;;12.77;100.00
13434;BME280;6789;47.678;9.158;2023-08-07T04:53:57;96934.69;;;12.85;100.00
13434;BME280;6789;47.678;9.158;2023-08-07T04:58:49;96943.53;;;12.90;100.00
13434;BME280;6789;47.678;9.158;2023-08-07T05:03:41;96945.56;;;13.00;100.00
13434;BME280;6789;47.678;9.158;2023-08-07T05:08:36;96950.84;;;13.00;100.00
13434;BME280;6789;47.678;9.158;2023-08-07T05:13:28;96943.13;;;13.10;100.00
13434;BME280;6789;47.678;9.158;2023-08-07T05:18:19;96942.19;;;13.16;99.85
13434;BME280;6789;47.678;9.158;2023-08-07T05:23:11;96948.38;;;13.21;99.89
13434;BME280;6789;47.678;9.158;2023-08-07T05:28:11;96953.47;;;13.28;99.16
13434;BME280;6789;47.678;9.158;2023-08-07T05:33:02;96962.19;;;13.28;99.52
13434;BME280;6789;47.678;9.158;2023-08-07T05:37:58;96963.03;;;13.45;98.74
13434;BME280;6789;47.678;9.158;2023-08-07T05:43:04;96962.78;;;13.47;98.15
13434;BME280;6789;47.678;9.158;2023-08-07T05:47:56;96961.19;;;13.46;98.09
13434;BME280;6789;47.678;9.158;2023-08-07T05:53:00;96970.00;;;13.51;97.45
13434;BME280;6789;47.678;9.158;2023-08-07T05:57:52;96976.81;;;13.63;97.23
13434;BME280;6789;47.678;9.158;2023-08-07T06:02:44;96979.28;;;13.70;96.07
13434;BME280;6789;47.678;9.158;2023-08-07T06:07:39;96976.53;;;13.76;96.14
13434;BME280;6789;47.678;9.158;2023-08-07T06:12:31;96978.34;;;13.76;95.96
13434;BME280;6789;47.678;9.158;2023-08-07T06:17:23;96982.22;;;13.85;94.63
13434;BME280;6789;47.678;9.158;2023-08-07T06:22:15;96986.94;;;13.99;93.68
13434;BME280;6789;47.678;9.158;2023-08-07T06:27:21;96978.31;;;14.04;92.18
13434;BME280;6789;47.678;9.158;2023-08-07T06:32:31;96977.47;;;14.15;91.64
13434;BME280;6789;47.678;9.158;2023-08-07T06:37:26;96990.72;;;14.20;91.41
13434;BME280;6789;47.678;9.158;2023-08-07T06:42:21;96993.69;;;14.23;90.49
13434;BME280;6789;47.678;9.158;2023-08-07T06:47:27;97000.84;;;14.60;88.41
13434;BME280;6789;47.678;9.158;2023-08-07T06:52:19;96998.63;;;14.90;86.33
13434;BME280;6789;47.678;9.158;2023-08-07T06:57:12;97000.09;;;15.02;85.91
13434;BME280;6789;47.678;9.158;2023-08-07T07:02:17;97001.97;;;15.02;85.68
13434;BME280;6789;47.678;9.158;2023-08-07T07:07:21;97007.34;;;14.91;85.83
13434;BME280;6789;47.678;9.158;2023-08-07T07:12:14;97014.19;;;14.70;87.14
13434;BME280;6789;47.678;9.158;2023-08-07T07:17:06;97014.56;;;14.79;86.78
13434;BME280;6789;47.678;9.158;2023-08-07T07:22:02;97020.09;;;14.77;86.34
13434;BME280;6789;47.678;9.158;2023-08-07T07:27:03;97027.22;;;14.60;86.84
13434;BME280;6789;47.678;9.158;2023-08-07T07:31:59;97022.06;;;14.65;87.37
13434;BME280;6789;47.678;9.158;2023-08-07T07:36:55;97027.06;;;14.83;86.58
13434;BME280;6789;47.678;9.158;2023-08-07T07:41:55;97018.56;;;15.19;86.22
13434;BME280;6789;47.678;9.158;2023-08-07T07:46:50;97007.59;;;15.74;84.01
13434;BME280;6789;47.678;9.158;2023-08-07T07:51:42;97006.34;;;16.08;81.56
13434;BME280;6789;47.678;9.158;2023-08-07T07:56:50;96999.00;;;16.46;77.60
13434;BME280;6789;47.678;9.158;2023-08-07T08:01:44;97008.97;;;16.71;76.55
13434;BME280;6789;47.678;9.158;2023-08-07T08:06:37;97003.91;;;17.15;74.08
13434;BME280;6789;47.678;9.158;2023-08-07T08:11:31;97013.03;;;17.39;71.91
13434;BME280;6789;47.678;9.158;2023-08-07T08:16:36;97021.28;;;17.38;70.71
13434;BME280;6789;47.678;9.158;2023-08-07T08:21:29;97021.09;;;17.59;70.45
13434;BME280;6789;47.678;9.158;2023-08-07T08:26:40;97019.59;;;17.93;70.45
13434;BME280;6789;47.678;9.158;2023-08-07T08:31:34;97026.25;;;18.10;68.45
13434;BME280;6789;47.678;9.158;2023-08-07T08:36:36;97026.03;;;18.32;66.96
13434;BME280;6789;47.678;9.158;2023-08-07T08:41:31;97020.47;;;18.28;65.75
13434;BME280;6789;47.678;9.158;2023-08-07T08:46:28;97023.91;;;18.24;65.90
13434;BME280;6789;47.678;9.158;2023-08-07T08:51:21;97013.81;;;18.41;64.16
13434;BME280;6789;47.678;9.158;2023-08-07T08:56:32;97008.50;;;18.46;63.65
13434;BME280;6789;47.678;9.158;2023-08-07T09:01:40;97007.72;;;18.60;63.80
13434;BME280;6789;47.678;9.158;2023-08-07T09:06:32;97005.03;;;18.55;63.11
13434;BME280;6789;47.678;9.158;2023-08-07T09:11:28;97000.66;;;19.24;61.83
13434;BME280;6789;47.678;9.158;2023-08-07T09:16:31;96995.06;;;19.30;60.99
13434;BME280;6789;47.678;9.158;2023-08-07T09:21:37;97003.66;;;18.82;62.03
13434;BME280;6789;47.678;9.158;2023-08-07T09:26:43;96988.94;;;19.30;61.11
13434;BME280;6789;47.678;9.158;2023-08-07T09:31:43;96998.56;;;19.06;60.87
13434;BME280;6789;47.678;9.158;2023-08-07T09:36:52;97002.03;;;19.06;59.70
13434;BME280;6789;47.678;9.158;2023-08-07T09:41:43;97016.66;;;19.14;61.00
13434;BME280;6789;47.678;9.158;2023-08-07T09:46:49;97018.59;;;18.59;63.76
13434;BME280;6789;47.678;9.158;2023-08-07T09:51:55;97028.56;;;17.72;70.12
13434;BME280;6789;47.678;9.158;2023-08-07T09:57:02;97048.88;;;16.96;74.45
13434;BME280;6789;47.678;9.158;2023-08-07T10:02:00;97048.63;;;16.30;82.95
13434;BME280;6789;47.678;9.158;2023-08-07T10:07:09;97059.34;;;16.18;81.48
13434;BME280;6789;47.678;9.158;2023-08-07T10:12:23;97087.19;;;15.14;87.65
13434;BME280;6789;47.678;9.158;2023-08-07T10:17:31;97083.47;;;14.61;93.37
13434;BME280;6789;47.678;9.158;2023-08-07T10:22:40;97059.97;;;14.76;91.14
13434;BME280;6789;47.678;9.158;2023-08-07T10:27:51;97068.78;;;15.02;91.44
13434;BME280;6789;47.678;9.158;2023-08-07T10:33:14;97054.97;;;15.17;94.78
13434;BME280;6789;47.678;9.158;2023-08-07T10:38:30;97050.78;;;15.59;92.06
13434;BME280;6789;47.678;9.158;2023-08-07T10:43:47;97061.34;;;16.06;92.74
13434;BME280;6789;47.678;9.158;2023-08-07T10:49:04;97068.13;;;16.50;87.57
13434;BME280;6789;47.678;9.158;2023-08-07T10:53:57;97051.72;;;16.53;84.78
13434;BME280;6789;47.678;9.158;2023-08-07T10:58:52;97056.19;;;16.84;87.07
13434;BME280;6789;47.678;9.158;2023-08-07T11:04:14;97049.84;;;16.85;87.87
13434;BME280;6789;47.678;9.158;2023-08-07T11:09:34;97052.44;;;16.75;85.86
13434;BME280;6789;47.678;9.158;2023-08-07T11:14:41;97049.63;;;16.55;87.68
13434;BME280;6789;47.678;9.158;2023-08-07T11:19:47;97047.28;;;16.95;81.64
13434;BME280;6789;47.678;9.158;2023-08-07T11:24:54;97041.25;;;17.60;78.11
13434;BME280;6789;47.678;9.158;2023-08-07T11:30:00;97048.78;;;17.98;74.42
13434;BME280;6789;47.678;9.158;2023-08-07T11:34:55;97061.22;;;17.83;71.93
13434;BME280;6789;47.678;9.158;2023-08-07T11:40:04;97060.75;;;17.29;69.92
13434;BME280;6789;47.678;9.158;2023-08-07T11:45:13;97058.31;;;17.23;65.92
13434;BME280;6789;47.678;9.158;2023-08-07T11:50:19;97056.47;;;17.85;68.01
13434;BME280;6789;47.678;9.158;2023-08-07T11:55:28;97058.97;;;18.26;65.57
13434;BME280;6789;47.678;9.158;2023-08-07T12:00:35;97051.00;;;18.41;66.07
13434;BME280;6789;47.678;9.158;2023-08-07T12:05:41;97048.84;;;18.92;65.03
13434;BME280;6789;47.678;9.158;2023-08-07T12:11:01;97053.28;;;19.36;64.93
13434;BME280;6789;47.678;9.158;2023-08-07T12:16:09;97050.34;;;19.38;63.99
13434;BME280;6789;47.678;9.158;2023-08-07T12:21:18;97054.28;;;19.55;66.23
13434;BME280;6789;47.678;9.158;2023-08-07T12:26:20;97060.38;;;19.66;65.81
13434;BME280;6789;47.678;9.158;2023-08-07T12:31:26;97065.31;;;19.04;67.06
13434;BME280;6789;47.678;9.158;2023-08-07T12:36:32;97061.09;;;18.73;71.33
13434;BME280;6789;47.678;9.158;2023-08-07T12:41:23;97060.28;;;18.73;70.82
13434;BME280;6789;47.678;9.158;2023-08-07T12:46:59;97052.56;;;18.27;70.43
13434;BME280;6789;47.678;9.158;2023-08-07T12:52:07;97059.22;;;18.74;66.70
13434;BME280;6789;47.678;9.158;2023-08-07T12:57:16;97056.75;;;19.32;61.91
13434;BME280;6789;47.678;9.158;2023-08-07T13:02:22;97056.69;;;19.52;59.67
13434;BME280;6789;47.678;9.158;2023-08-07T13:07:18;97069.41;;;19.70;59.55
13434;BME280;6789;47.678;9.158;2023-08-07T13:12:24;97070.97;;;19.76;57.69
13434;BME280;6789;47.678;9.158;2023-08-07T13:17:31;97075.38;;;19.32;59.68
13434;BME280;6789;47.678;9.158;2023-08-07T13:22:39;97077.03;;;18.98;64.36
13434;BME280;6789;47.678;9.158;2023-08-07T13:27:46;97066.94;;;18.56;66.07
13434;BME280;6789;47.678;9.158;2023-08-07T13:32:52;97064.56;;;18.59;64.60
13434;BME280;6789;47.678;9.158;2023-08-07T13:37:58;97070.13;;;18.87;64.03
13434;BME280;6789;47.678;9.158;2023-08-07T13:43:06;97064.22;;;19.35;65.29
13434;BME280;6789;47.678;9.158;2023-08-07T13:48:16;97065.47;;;19.47;64.88
13434;BME280;6789;47.678;9.158;2023-08-07T13:53:23;97071.81;;;19.61;63.22
13434;BME280;6789;47.678;9.158;2023-08-07T13:58:22;97075.25;;;19.72;62.20
13434;BME280;6789;47.678;9.158;2023-08-07T14:03:28;97068.56;;;19.74;58.68
13434;BME280;6789;47.678;9.158;2023-08-07T14:08:21;97079.44;;;19.83;55.61
13434;BME280;6789;47.678;9.158;2023-08-07T14:13:27;97077.63;;;19.73;56.37
13434;BME280;6789;47.678;9.158;2023-08-07T14:18:34;97087.31;;;19.44;55.50
13434;BME280;6789;47.678;9.158;2023-08-07T14:23:33;97120.09;;;18.80;63.02
13434;BME280;6789;47.678;9.158;2023-08-07T14:28:34;97127.06;;;17.90;70.78
13434;BME280;6789;47.678;9.158;2023-08-07T14:33:40;97107.50;;;17.45;74.05
13434;BME280;6789;47.678;9.158;2023-08-07T14:38:45;97110.19;;;17.55;80.88
13434;BME280;6789;47.678;9.158;2023-08-07T14:43:51;97103.13;;;17.81;82.98
13434;BME280;6789;47.678;9.158;2023-08-07T14:48:57;97095.47;;;17.89;79.84
13434;BME280;6789;47.678;9.158;2023-08-07T14:54:03;97105.50;;;17.77;80.77
13434;BME280;6789;47.678;9.158;2023-08-07T14:59:10;97092.25;;;17.77;82.47
13434;BME280;6789;47.678;9.158;2023-08-07T15:04:19;97086.59;;;18.25;79.89
13434;BME280;6789;47.678;9.158;2023-08-07T15:16:37;97090.44;;;19.71;65.90
13434;BME280;6789;47.678;9.158;2023-08-07T15:21:43;97090.41;;;19.76;63.34
13434;BME280;6789;47.678;9.158;2023-08-07T15:26:45;97083.75;;;19.79;64.57
13434;BME280;6789;47.678;9.158;2023-08-07T15:31:53;97085.38;;;19.70;63.82
13434;BME280;6789;47.678;9.158;2023-08-07T15:36:45;97078.69;;;19.77;60.80
13434;BME280;6789;47.678;9.158;2023-08-07T15:41:51;97096.09;;;19.50;60.80
13434;BME280;6789;47.678;9.158;2023-08-07T15:46:57;97086.31;;;19.01;61.66
13434;BME280;6789;47.678;9.158;2023-08-07T15:52:07;97107.06;;;18.64;66.93
13434;BME280;6789;47.678;9.158;2023-08-07T15:56:59;97114.28;;;17.83;74.62
13434;BME280;6789;47.678;9.158;2023-08-07T16:01:51;97126.88;;;17.14;80.10
13434;BME280;6789;47.678;9.158;2023-08-07T16:06:57;97131.63;;;17.08;85.32
13434;BME280;6789;47.678;9.158;2023-08-07T16:12:03;97116.53;;;17.08;83.76
13434;BME280;6789;47.678;9.158;2023-08-07T16:16:56;97113.16;;;17.22;82.74
13434;BME280;6789;47.678;9.158;2023-08-07T16:22:02;97113.00;;;17.34;79.21
13434;BME280;6789;47.678;9.158;2023-08-07T16:27:08;97118.38;;;17.49;80.58
13434;BME280;6789;47.678;9.158;2023-08-07T16:32:14;97116.53;;;17.49;80.51
13434;BME280;6789;47.678;9.158;2023-08-07T16:37:08;97123.94;;;17.47;80.12
13434;BME280;6789;47.678;9.158;2023-08-07T16:42:13;97129.06;;;17.59;81.88
13434;BME280;6789;47.678;9.158;2023-08-07T16:47:20;97127.19;;;17.59;82.99
13434;BME280;6789;47.678;9.158;2023-08-07T16:52:26;97124.59;;;17.69;82.68
13434;BME280;6789;47.678;9.158;2023-08-07T16:57:21;97119.84;;;17.76;80.63
13434;BME280;6789;47.678;9.158;2023-08-07T17:02:27;97115.63;;;17.85;81.25
13434;BME280;6789;47.678;9.158;2023-08-07T17:07:35;97116.38;;;17.71;79.25
13434;BME280;6789;47.678;9.158;2023-08-07T17:12:27;97121.81;;;17.44;80.34
13434;BME280;6789;47.678;9.158;2023-08-07T17:17:33;97119.59;;;17.26;79.01
13434;BME280;6789;47.678;9.158;2023-08-07T17:22:39;97120.03;;;17.18;77.47
13434;BME280;6789;47.678;9.158;2023-08-07T17:27:36;97126.06;;;17.09;76.32
13434;BME280;6789;47.678;9.158;2023-08-07T17:32:42;97124.22;;;17.14;76.33
13434;BME280;6789;47.678;9.158;2023-08-07T17:37:34;97128.97;;;17.08;75.37
13434;BME280;6789;47.678;9.158;2023-08-07T17:42:26;97127.78;;;16.89;74.32
13434;BME280;6789;47.678;9.158;2023-08-07T17:47:19;97126.69;;;16.90;74.11
13434;BME280;6789;47.678;9.158;2023-08-07T17:52:13;97128.09;;;16.66;75.19
13434;BME280;6789;47.678;9.158;2023-08-07T17:57:08;97127.47;;;16.54;76.10
13434;BME280;6789;47.678;9.158;2023-08-07T18:02:01;97127.38;;;16.44;77.87
13434;BME280;6789;47.678;9.158;2023-08-07T18:06:53;97141.72;;;16.27;79.11
13434;BME280;6789;47.678;9.158;2023-08-07T18:11:46;97135.00;;;16.14;79.84
13434;BME280;6789;47.678;9.158;2023-08-07T18:16:40;97141.16;;;15.98;80.44
13434;BME280;6789;47.678;9.158;2023-08-07T18:21:35;97140.00;;;15.89;81.26
13434;BME280;6789;47.678;9.158;2023-08-07T18:26:35;97142.53;;;15.79;81.13
13434;BME280;6789;47.678;9.158;2023-08-07T18:31:28;97139.88;;;15.79;81.38
13434;BME280;6789;47.678;9.158;2023-08-07T18:36:35;97140.81;;;15.69;80.76
13434;BME280;6789;47.678;9.158;2023-08-07T18:41:32;97145.41;;;15.57;81.89
13434;BME280;6789;47.678;9.158;2023-08-07T18:46:24;97142.66;;;15.47;83.74
13434;BME280;6789;47.678;9.158;2023-08-07T18:51:17;97149.84;;;15.35;85.29
13434;BME280;6789;47.678;9.158;2023-08-07T18:56:09;97156.84;;;15.24;87.32
13434;BME280;6789;47.678;9.158;2023-08-07T19:01:02;97164.91;;;15.18;88.19
13434;BME280;6789;47.678;9.158;2023-08-07T19:05:57;97169.88;;;15.14;89.48
13434;BME280;6789;47.678;9.158;2023-08-07T19:10:53;97177.09;;;15.19;88.14
13434;BME280;6789;47.678;9.158;2023-08-07T19:15:47;97181.00;;;15.00;89.39
13434;BME280;6789;47.678;9.158;2023-08-07T19:20:40;97171.47;;;14.83;90.95
13434;BME280;6789;47.678;9.158;2023-08-07T19:25:36;97175.94;;;14.66;91.43
13434;BME280;6789;47.678;9.158;2023-08-07T19:30:28;97184.41;;;14.51;93.21
13434;BME280;6789;47.678;9.158;2023-08-07T19:35:34;97185.66;;;14.32;95.91
13434;BME280;6789;47.678;9.158;2023-08-07T19:40:42;97188.56;;;14.47;92.63
13434;BME280;6789;47.678;9.158;2023-08-07T19:45:35;97188.38;;;14.37;93.89
13434;BME280;6789;47.678;9.158;2023-08-07T19:50:28;97199.69;;;14.22;95.29
13434;BME280;6789;47.678;9.158;2023-08-07T19:55:20;97201.91;;;14.02;97.55
13434;BME280;6789;47.678;9.158;2023-08-07T20:00:13;97193.84;;;14.08;96.76
13434;BME280;6789;47.678;9.158;2023-08-07T20:05:06;97197.56;;;13.96;97.87
13434;BME280;6789;47.678;9.158;2023-08-07T20:10:00;97185.97;;;13.97;97.02
13434;BME280;6789;47.678;9.158;2023-08-07T20:14:56;97181.50;;;13.97;97.18
13434;BME280;6789;47.678;9.158;2023-08-07T20:19:49;97180.91;;;13.95;98.40
13434;BME280;6789;47.678;9.158;2023-08-07T20:24:45;97176.22;;;13.97;97.98
13434;BME280;6789;47.678;9.158;2023-08-07T20:29:38;97166.16;;;13.94;98.17
13434;BME280;6789;47.678;9.158;2023-08-07T20:34:30;97154.66;;;14.00;97.44
13434;BME280;6789;47.678;9.158;2023-08-07T20:39:23;97168.88;;;13.99;96.50
13434;BME280;6789;47.678;9.158;2023-08-07T20:44:15;97168.41;;;14.02;96.93
13434;BME280;6789;47.678;9.158;2023-08-07T20:49:07;97172.75;;;14.08;95.69
13434;BME280;6789;47.678;9.158;2023-08-07T20:54:00;97162.56;;;14.12;95.44
13434;BME280;6789;47.678;9.158;2023-08-07T20:58:55;97159.69;;;14.13;95.30
13434;BME280;6789;47.678;9.158;2023-08-07T21:03:51;97150.97;;;14.40;94.25
13434;BME280;6789;47.678;9.158;2023-08-07T21:08:57;97149.16;;;14.29;94.08
13434;BME280;6789;47.678;9.158;2023-08-07T21:14:05;97151.72;;;14.25;94.76
13434;BME280;6789;47.678;9.158;2023-08-07T21:19:14;97145.19;;;14.43;92.06
13434;BME280;6789;47.678;9.158;2023-08-07T21:24:08;97153.19;;;14.32;92.80
13434;BME280;6789;47.678;9.158;2023-08-07T21:29:16;97143.09;;;14.29;92.63
13434;BME280;6789;47.678;9.158;2023-08-07T21:34:08;97150.03;;;14.46;92.65
13434;BME280;6789;47.678;9.158;2023-08-07T21:39:01;97137.75;;;14.24;93.08
13434;BME280;6789;47.678;9.158;2023-08-07T21:43:55;97141.31;;;14.18;92.86
13434;BME280;6789;47.678;9.158;2023-08-07T21:48:47;97138.59;;;14.13;93.75
13434;BME280;6789;47.678;9.158;2023-08-07T21:53:39;97138.13;;;14.05;92.94
13434;BME280;6789;47.678;9.158;2023-08-07T21:58:31;97135.38;;;14.00;94.35
13434;BME280;6789;47.678;9.158;2023-08-07T22:03:39;97126.97;;;13.86;92.99
13434;BME280;6789;47.678;9.158;2023-08-07T22:09:29;97138.69;;;13.79;94.51
13434;BME280;6789;47.678;9.158;2023-08-07T22:15:06;97127.38;;;13.67;95.85
13434;BME280;6789;47.678;9.158;2023-08-07T22:21:13;97135.75;;;13.52;95.79
13434;BME280;6789;47.678;9.158;2023-08-07T22:27:11;97125.03;;;13.43;96.78
13434;BME280;6789;47.678;9.158;2023-08-07T22:32:29;97124.00;;;13.32;97.16
13434;BME280;6789;47.678;9.158;2023-08-07T22:37:22;97120.47;;;13.27;98.03
13434;BME280;6789;47.678;9.158;2023-08-07T22:42:14;97122.41;;;13.20;99.94
13434;BME280;6789;47.678;9.158;2023-08-07T22:47:06;97133.63;;;13.15;100.00
13434;BME280;6789;47.678;9.158;2023-08-07T22:51:58;97130.22;;;13.03;100.00
13434;BME280;6789;47.678;9.158;2023-08-07T22:56:52;97121.84;;;13.06;100.00
13434;BME280;6789;47.678;9.158;2023-08-07T23:01:45;97107.78;;;12.89;100.00
13434;BME280;6789;47.678;9.158;2023-08-07T23:06:37;97104.66;;;12.81;100.00
13434;BME280;6789;47.678;9.158;2023-08-07T23:11:28;97101.09;;;12.76;100.00
13434;BME280;6789;47.678;9.158;2023-08-07T23:16:20;97102.94;;;12.75;100.00
13434;BME280;6789;47.678;9.158;2023-08-07T23:21:12;97101.53;;;12.61;100.00
13434;BME280;6789;47.678;9.158;2023-08-07T23:26:04;97100.59;;;12.56;100.00
13434;BME280;6789;47.678;9.158;2023-08-07T23:30:56;97092.41;;;12.52;100.00
13434;BME280;6789;47.678;9.158;2023-08-07T23:35:48;97087.34;;;12.51;100.00
13434;BME280;6789;47.678;9.158;2023-08-07T23:40:39;97083.81;;;12.45;100.00
13434;BME280;6789;47.678;9.158;2023-08-07T23:45:33;97082.28;;;12.38;100.00
13434;BME280;6789;47.678;9.158;2023-08-07T23:50:24;97077.03;;;12.38;100.00
13434;BME280;6789;47.678;9.158;2023-08-07T23:55:16;97066.88;;;12.30;100.00
